sensor_id;sensor_type;location;lat;lon;timestamp;pressure;altitude;pressure_sealevel;temperature;humidity
35704;BME280;21820;51.112;13.762;2023-02-12T00:01:21;101112.28;;;22.23;55.31
35704;BME280;21820;51.112;13.762;2023-02-12T00:03:47;101114.28;;;22.20;55.93
35704;BME280;21820;51.112;13.762;2023-02-12T00:06:13;101117.00;;;22.18;56.17
35704;BME280;21820;51.112;13.762;2023-02-12T00:08:39;101122.66;;;22.25;56.69
35704;BME280;21820;51.112;13.762;2023-02-12T00:13:33;101123.31;;;22.16;55.80
35704;BME280;21820;51.112;13.762;2023-02-12T00:16:03;101130.94;;;22.19;56.56
35704;BME280;21820;51.112;13.762;2023-02-12T00:18:28;101129.41;;;22.16;54.93
35704;BME280;21820;51.112;13.762;2023-02-12T00:20:54;101115.03;;;22.09;55.33
35704;BME280;21820;51.112;13.762;2023-02-12T00:23:19;101139.75;;;22.18;55.27
35704;BME280;21820;51.112;13.762;2023-02-12T00:25:44;101138.41;;;22.12;55.15
35704;BME280;21820;51.112;13.762;2023-02-12T00:28:09;101139.97;;;22.15;56.52
35704;BME280;21820;51.112;13.762;2023-02-12T00:30:35;101141.44;;;22.19;56.27
35704;BME280;21820;51.112;13.762;2023-02-12T00:33:00;101144.03;;;22.19;55.80
35704;BME280;21820;51.112;13.762;2023-02-12T00:35:26;101123.94;;;22.07;56.38
35704;BME280;21820;51.112;13.762;2023-02-12T00:37:51;101132.13;;;22.15;55.44
35704;BME280;21820;51.112;13.762;2023-02-12T00:40:17;101135.56;;;22.15;55.88
35704;BME280;21820;51.112;13.762;2023-02-12T00:42:42;101127.06;;;22.12;55.50
35704;BME280;21820;51.112;13.762;2023-02-12T00:45:08;101134.41;;;22.07;54.90
35704;BME280;21820;51.112;13.762;2023-02-12T00:47:33;101129.91;;;22.09;54.81
35704;BME280;21820;51.112;13.762;2023-02-12T00:49:58;101130.84;;;22.08;55.32
35704;BME280;21820;51.112;13.762;2023-02-12T00:52:24;101140.38;;;22.09;56.43
35704;BME280;21820;51.112;13.762;2023-02-12T00:54:49;101129.91;;;22.09;56.20
35704;BME280;21820;51.112;13.762;2023-02-12T00:57:14;101122.88;;;21.96;56.73
35704;BME280;21820;51.112;13.762;2023-02-12T00:59:40;101143.97;;;22.08;54.86
35704;BME280;21820;51.112;13.762;2023-02-12T01:02:07;101145.84;;;22.06;57.00
35704;BME280;21820;51.112;13.762;2023-02-12T01:04:32;101139.66;;;22.07;56.18
35704;BME280;21820;51.112;13.762;2023-02-12T01:06:57;101145.31;;;22.01;56.13
35704;BME280;21820;51.112;13.762;2023-02-12T01:09:23;101133.03;;;21.88;55.54
35704;BME280;21820;51.112;13.762;2023-02-12T01:11:48;101140.28;;;21.98;56.10
35704;BME280;21820;51.112;13.762;2023-02-12T01:14:13;101156.84;;;21.98;56.17
35704;BME280;21820;51.112;13.762;2023-02-12T01:16:39;101148.16;;;21.98;55.13
35704;BME280;21820;51.112;13.762;2023-02-12T01:19:04;101150.97;;;21.94;55.78
35704;BME280;21820;51.112;13.762;2023-02-12T01:21:33;101152.84;;;21.92;56.13
35704;BME280;21820;51.112;13.762;2023-02-12T01:24:00;101159.22;;;21.88;55.46
35704;BME280;21820;51.112;13.762;2023-02-12T01:26:27;101157.34;;;21.90;55.73
35704;BME280;21820;51.112;13.762;2023-02-12T01:28:55;101152.84;;;21.92;56.70
35704;BME280;21820;51.112;13.762;2023-02-12T01:31:25;101159.13;;;21.90;56.96
35704;BME280;21820;51.112;13.762;2023-02-12T01:33:53;101159.34;;;21.87;56.80
35704;BME280;21820;51.112;13.762;2023-02-12T01:36:19;101160.19;;;21.87;56.24
35704;BME280;21820;51.112;13.762;2023-02-12T01:38:45;101137.97;;;21.80;56.48
35704;BME280;21820;51.112;13.762;2023-02-12T01:41:16;101152.31;;;21.87;56.69
35704;BME280;21820;51.112;13.762;2023-02-12T01:43:44;101149.59;;;21.89;56.58
35704;BME280;21820;51.112;13.762;2023-02-12T01:46:12;101152.31;;;21.87;56.01
35704;BME280;21820;51.112;13.762;2023-02-12T01:48:41;101161.84;;;21.88;57.01
35704;BME280;21820;51.112;13.762;2023-02-12T01:51:12;101156.09;;;21.83;57.40
35704;BME280;21820;51.112;13.762;2023-02-12T01:53:49;101169.91;;;21.85;57.04
35704;BME280;21820;51.112;13.762;2023-02-12T01:56:16;101167.28;;;21.85;55.35
35704;BME280;21820;51.112;13.762;2023-02-12T01:58:44;101165.63;;;21.84;56.43
35704;BME280;21820;51.112;13.762;2023-02-12T02:01:14;101153.69;;;21.80;56.86
35704;BME280;21820;51.112;13.762;2023-02-12T02:03:44;101167.28;;;21.85;56.58
35704;BME280;21820;51.112;13.762;2023-02-12T02:06:15;101166.44;;;21.85;56.82
35704;BME280;21820;51.112;13.762;2023-02-12T02:08:42;101166.56;;;21.83;55.98
35704;BME280;21820;51.112;13.762;2023-02-12T02:11:08;101169.16;;;21.83;57.14
35704;BME280;21820;51.112;13.762;2023-02-12T02:13:53;101160.59;;;21.81;56.44
35704;BME280;21820;51.112;13.762;2023-02-12T02:16:42;101153.69;;;21.80;56.69
35704;BME280;21820;51.112;13.762;2023-02-12T02:19:29;101157.88;;;21.83;57.81
35704;BME280;21820;51.112;13.762;2023-02-12T02:22:00;101152.66;;;21.83;56.29
35704;BME280;21820;51.112;13.762;2023-02-12T02:27:34;101161.13;;;21.86;57.10
35704;BME280;21820;51.112;13.762;2023-02-12T02:32:53;101158.53;;;21.86;57.09
35704;BME280;21820;51.112;13.762;2023-02-12T02:36:00;101159.44;;;21.85;57.51
35704;BME280;21820;51.112;13.762;2023-02-12T02:38:40;101150.13;;;21.81;57.44
35704;BME280;21820;51.112;13.762;2023-02-12T02:41:19;101157.88;;;21.83;57.47
35704;BME280;21820;51.112;13.762;2023-02-12T02:43:50;101165.63;;;21.84;57.11
35704;BME280;21820;51.112;13.762;2023-02-12T02:48:48;101167.63;;;21.81;57.51
35704;BME280;21820;51.112;13.762;2023-02-12T02:51:20;101170.34;;;21.79;56.89
35704;BME280;21820;51.112;13.762;2023-02-12T02:54:18;101168.16;;;21.86;57.72
35704;BME280;21820;51.112;13.762;2023-02-12T02:56:45;101175.69;;;21.90;56.93
35704;BME280;21820;51.112;13.762;2023-02-12T02:59:17;101177.03;;;21.83;56.75
35704;BME280;21820;51.112;13.762;2023-02-12T03:01:52;101178.09;;;21.81;57.13
35704;BME280;21820;51.112;13.762;2023-02-12T03:04:35;101191.06;;;21.82;56.97
35704;BME280;21820;51.112;13.762;2023-02-12T03:07:12;101185.84;;;21.82;57.12
35704;BME280;21820;51.112;13.762;2023-02-12T03:09:43;101170.91;;;21.70;56.99
35704;BME280;21820;51.112;13.762;2023-02-12T03:12:15;101191.19;;;21.81;57.33
35704;BME280;21820;51.112;13.762;2023-02-12T03:14:48;101197.34;;;21.80;56.92
35704;BME280;21820;51.112;13.762;2023-02-12T03:17:26;101186.16;;;21.78;57.23
35704;BME280;21820;51.112;13.762;2023-02-12T03:19:57;101182.31;;;21.69;57.13
35704;BME280;21820;51.112;13.762;2023-02-12T03:22:29;101190.63;;;21.76;57.33
35704;BME280;21820;51.112;13.762;2023-02-12T03:25:15;101195.09;;;21.74;57.88
35704;BME280;21820;51.112;13.762;2023-02-12T03:28:01;101201.84;;;21.78;57.29
35704;BME280;21820;51.112;13.762;2023-02-12T03:30:38;101204.38;;;21.79;57.63
35704;BME280;21820;51.112;13.762;2023-02-12T03:33:28;101222.81;;;21.78;56.97
35704;BME280;21820;51.112;13.762;2023-02-12T03:36:07;101229.81;;;21.77;57.35
35704;BME280;21820;51.112;13.762;2023-02-12T03:38:45;101235.78;;;21.79;57.21
35704;BME280;21820;51.112;13.762;2023-02-12T03:41:20;101229.03;;;21.75;57.65
35704;BME280;21820;51.112;13.762;2023-02-12T03:43:52;101223.78;;;21.75;56.71
35704;BME280;21820;51.112;13.762;2023-02-12T03:49:03;101239.50;;;21.75;57.57
35704;BME280;21820;51.112;13.762;2023-02-12T03:51:37;101232.97;;;21.68;57.30
35704;BME280;21820;51.112;13.762;2023-02-12T03:54:05;101249.09;;;21.76;57.25
35704;BME280;21820;51.112;13.762;2023-02-12T03:56:36;101255.13;;;21.77;57.65
35704;BME280;21820;51.112;13.762;2023-02-12T03:59:03;101253.38;;;21.77;56.63
35704;BME280;21820;51.112;13.762;2023-02-12T04:01:30;101258.94;;;21.85;57.06
35704;BME280;21820;51.112;13.762;2023-02-12T04:03:56;101267.31;;;21.78;57.28
35704;BME280;21820;51.112;13.762;2023-02-12T04:06:26;101269.25;;;21.74;57.72
35704;BME280;21820;51.112;13.762;2023-02-12T04:08:54;101274.31;;;21.77;57.37
35704;BME280;21820;51.112;13.762;2023-02-12T04:17:59;101272.66;;;21.76;57.53
35704;BME280;21820;51.112;13.762;2023-02-12T04:23:06;101280.50;;;21.76;57.62
35704;BME280;21820;51.112;13.762;2023-02-12T04:28:20;101273.47;;;21.77;57.77
35704;BME280;21820;51.112;13.762;2023-02-12T04:31:04;101284.78;;;21.77;57.43
35704;BME280;21820;51.112;13.762;2023-02-12T04:33:39;101260.41;;;21.63;57.31
35704;BME280;21820;51.112;13.762;2023-02-12T04:36:12;101279.16;;;21.43;55.48
35704;BME280;21820;51.112;13.762;2023-02-12T04:38:43;101266.59;;;21.35;55.08
35704;BME280;21820;51.112;13.762;2023-02-12T04:41:11;101267.97;;;21.67;54.41
35704;BME280;21820;51.112;13.762;2023-02-12T04:43:37;101280.63;;;21.87;53.91
35704;BME280;21820;51.112;13.762;2023-02-12T04:46:04;101280.47;;;22.03;53.21
35704;BME280;21820;51.112;13.762;2023-02-12T04:48:30;101275.88;;;22.19;53.00
35704;BME280;21820;51.112;13.762;2023-02-12T04:50:55;101276.00;;;22.30;52.54
35704;BME280;21820;51.112;13.762;2023-02-12T04:53:21;101280.94;;;22.47;52.10
35704;BME280;21820;51.112;13.762;2023-02-12T04:55:46;101283.91;;;22.55;52.29
35704;BME280;21820;51.112;13.762;2023-02-12T04:58:12;101273.63;;;22.65;51.25
35704;BME280;21820;51.112;13.762;2023-02-12T05:00:38;101280.13;;;22.72;51.86
35704;BME280;21820;51.112;13.762;2023-02-12T05:03:04;101284.31;;;22.87;51.25
35704;BME280;21820;51.112;13.762;2023-02-12T05:05:29;101284.81;;;22.92;50.91
35704;BME280;21820;51.112;13.762;2023-02-12T05:07:55;101285.13;;;23.00;50.98
35704;BME280;21820;51.112;13.762;2023-02-12T05:10:20;101283.47;;;22.99;50.57
35704;BME280;21820;51.112;13.762;2023-02-12T05:12:45;101283.00;;;23.05;50.89
35704;BME280;21820;51.112;13.762;2023-02-12T05:15:11;101282.97;;;23.17;50.29
35704;BME280;21820;51.112;13.762;2023-02-12T05:17:36;101286.97;;;23.23;50.32
35704;BME280;21820;51.112;13.762;2023-02-12T05:20:02;101279.50;;;23.30;50.46
35704;BME280;21820;51.112;13.762;2023-02-12T05:22:28;101285.16;;;23.36;49.77
35704;BME280;21820;51.112;13.762;2023-02-12T05:24:53;101276.66;;;23.33;49.79
35704;BME280;21820;51.112;13.762;2023-02-12T05:27:19;101288.56;;;23.49;50.03
35704;BME280;21820;51.112;13.762;2023-02-12T05:29:44;101294.34;;;23.54;49.34
35704;BME280;21820;51.112;13.762;2023-02-12T05:32:09;101295.34;;;23.64;49.75
35704;BME280;21820;51.112;13.762;2023-02-12T05:34:35;101298.47;;;23.69;49.48
35704;BME280;21820;51.112;13.762;2023-02-12T05:37:00;101304.19;;;23.63;49.49
35704;BME280;21820;51.112;13.762;2023-02-12T05:39:26;101299.25;;;23.59;49.24
35704;BME280;21820;51.112;13.762;2023-02-12T05:41:51;101303.28;;;23.52;49.66
35704;BME280;21820;51.112;13.762;2023-02-12T05:44:16;101311.19;;;23.39;50.47
35704;BME280;21820;51.112;13.762;2023-02-12T05:46:42;101303.97;;;23.30;50.31
35704;BME280;21820;51.112;13.762;2023-02-12T05:49:08;101304.81;;;23.18;50.97
35704;BME280;21820;51.112;13.762;2023-02-12T05:51:34;101286.28;;;22.96;51.20
35704;BME280;21820;51.112;13.762;2023-02-12T05:54:02;101300.66;;;22.90;51.38
35704;BME280;21820;51.112;13.762;2023-02-12T05:56:32;101304.66;;;22.83;52.01
35704;BME280;21820;51.112;13.762;2023-02-12T05:59:00;101296.88;;;22.69;51.74
35704;BME280;21820;51.112;13.762;2023-02-12T06:01:35;101306.78;;;22.66;52.42
35704;BME280;21820;51.112;13.762;2023-02-12T06:04:03;101301.94;;;22.60;52.29
35704;BME280;21820;51.112;13.762;2023-02-12T06:06:29;101314.28;;;22.58;52.19
35704;BME280;21820;51.112;13.762;2023-02-12T06:08:55;101303.63;;;22.61;52.06
35704;BME280;21820;51.112;13.762;2023-02-12T06:11:20;101295.84;;;22.59;51.94
35704;BME280;21820;51.112;13.762;2023-02-12T06:13:46;101317.88;;;22.82;52.11
35704;BME280;21820;51.112;13.762;2023-02-12T06:16:16;101327.09;;;22.87;51.48
35704;BME280;21820;51.112;13.762;2023-02-12T06:18:42;101324.69;;;22.97;51.11
35704;BME280;21820;51.112;13.762;2023-02-12T06:21:08;101321.09;;;23.10;51.11
35704;BME280;21820;51.112;13.762;2023-02-12T06:23:33;101323.50;;;23.13;51.03
35704;BME280;21820;51.112;13.762;2023-02-12T06:25:58;101340.00;;;23.28;50.17
35704;BME280;21820;51.112;13.762;2023-02-12T06:28:24;101340.91;;;23.27;50.94
35704;BME280;21820;51.112;13.762;2023-02-12T06:30:49;101339.22;;;23.26;50.80
35704;BME280;21820;51.112;13.762;2023-02-12T06:33:15;101332.94;;;23.16;50.56
35704;BME280;21820;51.112;13.762;2023-02-12T06:35:40;101347.13;;;23.13;50.68
35704;BME280;21820;51.112;13.762;2023-02-12T06:38:05;101351.66;;;22.99;51.66
35704;BME280;21820;51.112;13.762;2023-02-12T06:40:31;101349.13;;;22.85;51.54
35704;BME280;21820;51.112;13.762;2023-02-12T06:42:57;101356.25;;;22.83;51.56
35704;BME280;21820;51.112;13.762;2023-02-12T06:45:22;101376.94;;;22.75;51.79
35704;BME280;21820;51.112;13.762;2023-02-12T06:47:48;101365.91;;;22.70;51.85
35704;BME280;21820;51.112;13.762;2023-02-12T06:52:38;101379.53;;;22.62;52.32
35704;BME280;21820;51.112;13.762;2023-02-12T06:55:04;101382.28;;;22.61;52.94
35704;BME280;21820;51.112;13.762;2023-02-12T06:57:29;101387.00;;;22.68;52.01
35704;BME280;21820;51.112;13.762;2023-02-12T06:59:55;101386.28;;;22.79;51.75
35704;BME280;21820;51.112;13.762;2023-02-12T07:02:21;101391.19;;;22.83;51.85
35704;BME280;21820;51.112;13.762;2023-02-12T07:04:46;101395.19;;;23.01;51.36
35704;BME280;21820;51.112;13.762;2023-02-12T07:07:11;101386.06;;;23.07;51.43
35704;BME280;21820;51.112;13.762;2023-02-12T07:09:37;101394.25;;;23.15;51.26
35704;BME280;21820;51.112;13.762;2023-02-12T07:12:02;101389.31;;;23.23;51.08
35704;BME280;21820;51.112;13.762;2023-02-12T07:14:28;101395.84;;;23.30;51.10
35704;BME280;21820;51.112;13.762;2023-02-12T07:16:54;101401.28;;;23.40;50.03
35704;BME280;21820;51.112;13.762;2023-02-12T07:19:20;101398.34;;;23.32;50.87
35704;BME280;21820;51.112;13.762;2023-02-12T07:21:46;101406.75;;;23.37;50.50
35704;BME280;21820;51.112;13.762;2023-02-12T07:24:11;101404.63;;;23.29;50.28
35704;BME280;21820;51.112;13.762;2023-02-12T07:26:37;101408.81;;;23.19;50.89
35704;BME280;21820;51.112;13.762;2023-02-12T07:29:03;101406.00;;;23.09;50.90
35704;BME280;21820;51.112;13.762;2023-02-12T07:31:29;101414.63;;;22.99;51.89
35704;BME280;21820;51.112;13.762;2023-02-12T07:33:55;101416.19;;;22.89;52.16
35704;BME280;21820;51.112;13.762;2023-02-12T07:36:22;101420.91;;;22.84;52.55
35704;BME280;21820;51.112;13.762;2023-02-12T07:38:47;101417.91;;;22.76;52.28
35704;BME280;21820;51.112;13.762;2023-02-12T07:41:14;101426.31;;;22.68;52.74
35704;BME280;21820;51.112;13.762;2023-02-12T07:43:41;101415.41;;;22.62;52.96
35704;BME280;21820;51.112;13.762;2023-02-12T07:46:11;101417.16;;;22.61;52.66
35704;BME280;21820;51.112;13.762;2023-02-12T07:51:07;101419.31;;;22.69;52.13
35704;BME280;21820;51.112;13.762;2023-02-12T07:53:33;101419.63;;;22.77;52.29
35704;BME280;21820;51.112;13.762;2023-02-12T07:56:24;101432.19;;;22.84;52.38
35704;BME280;21820;51.112;13.762;2023-02-12T07:58:53;101428.22;;;22.91;51.58
35704;BME280;21820;51.112;13.762;2023-02-12T08:01:40;101420.88;;;22.96;51.50
35704;BME280;21820;51.112;13.762;2023-02-12T08:04:11;101426.38;;;23.18;51.27
35704;BME280;21820;51.112;13.762;2023-02-12T08:06:43;101437.09;;;23.28;50.83
35704;BME280;21820;51.112;13.762;2023-02-12T08:09:11;101448.00;;;23.35;51.10
35704;BME280;21820;51.112;13.762;2023-02-12T08:11:38;101432.03;;;23.38;50.06
35704;BME280;21820;51.112;13.762;2023-02-12T08:14:04;101445.59;;;23.32;50.42
35704;BME280;21820;51.112;13.762;2023-02-12T08:16:30;101445.25;;;23.23;51.07
35704;BME280;21820;51.112;13.762;2023-02-12T08:18:57;101439.59;;;23.17;51.07
35704;BME280;21820;51.112;13.762;2023-02-12T08:21:25;101442.09;;;23.06;51.48
35704;BME280;21820;51.112;13.762;2023-02-12T08:23:50;101453.13;;;22.98;51.17
35704;BME280;21820;51.112;13.762;2023-02-12T08:26:21;101450.47;;;22.86;51.91
35704;BME280;21820;51.112;13.762;2023-02-12T08:28:49;101451.41;;;22.85;51.88
35704;BME280;21820;51.112;13.762;2023-02-12T08:31:20;101459.88;;;22.76;52.62
35704;BME280;21820;51.112;13.762;2023-02-12T08:33:47;101450.03;;;22.67;52.81
35704;BME280;21820;51.112;13.762;2023-02-12T08:36:15;101459.66;;;22.66;52.41
35704;BME280;21820;51.112;13.762;2023-02-12T08:38:43;101454.41;;;22.66;52.61
35704;BME280;21820;51.112;13.762;2023-02-12T08:41:11;101454.19;;;22.69;52.77
35704;BME280;21820;51.112;13.762;2023-02-12T08:43:39;101453.59;;;22.78;52.31
35704;BME280;21820;51.112;13.762;2023-02-12T08:46:07;101459.19;;;22.86;52.06
35704;BME280;21820;51.112;13.762;2023-02-12T08:48:33;101439.97;;;22.86;52.13
35704;BME280;21820;51.112;13.762;2023-02-12T08:51:08;101466.44;;;23.08;50.99
35704;BME280;21820;51.112;13.762;2023-02-12T08:53:34;101475.69;;;23.13;51.66
35704;BME280;21820;51.112;13.762;2023-02-12T08:56:00;101473.94;;;23.27;50.95
35704;BME280;21820;51.112;13.762;2023-02-12T08:58:25;101469.84;;;23.35;50.26
35704;BME280;21820;51.112;13.762;2023-02-12T09:00:51;101467.75;;;23.40;50.56
35704;BME280;21820;51.112;13.762;2023-02-12T09:03:16;101471.53;;;23.36;50.36
35704;BME280;21820;51.112;13.762;2023-02-12T09:05:41;101482.22;;;23.33;51.04
35704;BME280;21820;51.112;13.762;2023-02-12T09:08:07;101486.41;;;23.23;50.89
35704;BME280;21820;51.112;13.762;2023-02-12T09:10:33;101484.38;;;23.14;51.44
35704;BME280;21820;51.112;13.762;2023-02-12T09:12:58;101496.97;;;23.09;51.35
35704;BME280;21820;51.112;13.762;2023-02-12T09:15:24;101489.84;;;22.98;51.61
35704;BME280;21820;51.112;13.762;2023-02-12T09:17:49;101486.78;;;22.92;51.91
35704;BME280;21820;51.112;13.762;2023-02-12T09:20:14;101489.09;;;22.84;51.87
35704;BME280;21820;51.112;13.762;2023-02-12T09:22:40;101496.41;;;22.79;52.38
35704;BME280;21820;51.112;13.762;2023-02-12T09:25:05;101492.41;;;22.73;52.24
35704;BME280;21820;51.112;13.762;2023-02-12T09:27:31;101502.25;;;22.70;52.69
35704;BME280;21820;51.112;13.762;2023-02-12T09:29:56;101504.66;;;22.73;52.49
35704;BME280;21820;51.112;13.762;2023-02-12T09:32:21;101502.47;;;22.79;52.34
35704;BME280;21820;51.112;13.762;2023-02-12T09:34:47;101500.50;;;22.83;52.70
35704;BME280;21820;51.112;13.762;2023-02-12T09:37:12;101509.22;;;22.96;51.53
35704;BME280;21820;51.112;13.762;2023-02-12T09:39:37;101506.22;;;23.02;51.56
35704;BME280;21820;51.112;13.762;2023-02-12T09:42:20;101513.47;;;23.11;51.03
35704;BME280;21820;51.112;13.762;2023-02-12T09:45:09;101508.25;;;23.23;51.34
35704;BME280;21820;51.112;13.762;2023-02-12T09:47:53;101509.63;;;23.29;51.25
35704;BME280;21820;51.112;13.762;2023-02-12T09:53:17;101515.81;;;23.41;50.80
35704;BME280;21820;51.112;13.762;2023-02-12T09:55:44;101523.59;;;23.42;50.85
35704;BME280;21820;51.112;13.762;2023-02-12T09:58:16;101517.81;;;23.37;50.59
35704;BME280;21820;51.112;13.762;2023-02-12T10:00:43;101509.06;;;23.24;50.98
35704;BME280;21820;51.112;13.762;2023-02-12T10:03:13;101503.16;;;23.08;51.56
35704;BME280;21820;51.112;13.762;2023-02-12T10:05:44;101502.53;;;23.04;51.17
35704;BME280;21820;51.112;13.762;2023-02-12T10:11:40;101513.84;;;22.92;52.42
35704;BME280;21820;51.112;13.762;2023-02-12T10:14:39;101516.22;;;22.83;52.98
35704;BME280;21820;51.112;13.762;2023-02-12T10:25:25;101514.81;;;22.65;52.98
35704;BME280;21820;51.112;13.762;2023-02-12T10:27:55;101514.44;;;22.71;52.47
35704;BME280;21820;51.112;13.762;2023-02-12T10:30:40;101520.13;;;22.77;52.38
35704;BME280;21820;51.112;13.762;2023-02-12T10:33:15;101516.66;;;22.89;52.19
35704;BME280;21820;51.112;13.762;2023-02-12T10:35:47;101520.03;;;22.91;52.51
35704;BME280;21820;51.112;13.762;2023-02-12T10:38:18;101510.72;;;23.00;51.75
35704;BME280;21820;51.112;13.762;2023-02-12T10:40:45;101515.88;;;23.14;51.35
35704;BME280;21820;51.112;13.762;2023-02-12T10:43:12;101516.00;;;23.25;50.97
35704;BME280;21820;51.112;13.762;2023-02-12T10:45:40;101507.63;;;23.33;50.83
35704;BME280;21820;51.112;13.762;2023-02-12T10:48:24;101515.63;;;23.31;50.52
35704;BME280;21820;51.112;13.762;2023-02-12T10:53:30;101514.97;;;23.28;51.13
35704;BME280;21820;51.112;13.762;2023-02-12T10:56:13;101499.69;;;23.07;51.28
35704;BME280;21820;51.112;13.762;2023-02-12T10:58:41;101503.81;;;22.99;51.75
35704;BME280;21820;51.112;13.762;2023-02-12T11:01:16;101514.91;;;23.02;51.76
35704;BME280;21820;51.112;13.762;2023-02-12T11:03:43;101522.56;;;22.93;51.90
35704;BME280;21820;51.112;13.762;2023-02-12T11:06:23;101520.13;;;22.90;52.93
35704;BME280;21820;51.112;13.762;2023-02-12T11:08:49;101524.94;;;22.83;51.95
35704;BME280;21820;51.112;13.762;2023-02-12T11:11:36;101516.84;;;22.74;53.42
35704;BME280;21820;51.112;13.762;2023-02-12T11:14:14;101501.16;;;22.60;53.31
35704;BME280;21820;51.112;13.762;2023-02-12T11:16:59;101508.00;;;22.62;52.97
35704;BME280;21820;51.112;13.762;2023-02-12T11:19:30;101494.47;;;22.56;53.16
35704;BME280;21820;51.112;13.762;2023-02-12T11:22:25;101488.81;;;22.62;52.78
35704;BME280;21820;51.112;13.762;2023-02-12T11:24:59;101508.03;;;22.75;52.75
35704;BME280;21820;51.112;13.762;2023-02-12T11:27:26;101505.84;;;22.81;52.19
35704;BME280;21820;51.112;13.762;2023-02-12T11:32:34;101504.03;;;23.08;51.66
35704;BME280;21820;51.112;13.762;2023-02-12T11:37:32;101504.47;;;23.28;50.77
35704;BME280;21820;51.112;13.762;2023-02-12T11:40:01;101505.75;;;23.35;51.18
35704;BME280;21820;51.112;13.762;2023-02-12T11:42:31;101511.84;;;23.35;51.24
35704;BME280;21820;51.112;13.762;2023-02-12T11:44:59;101491.66;;;23.23;50.99
35704;BME280;21820;51.112;13.762;2023-02-12T11:47:27;101507.28;;;23.24;51.45
35704;BME280;21820;51.112;13.762;2023-02-12T11:49:58;101504.22;;;23.18;51.55
35704;BME280;21820;51.112;13.762;2023-02-12T11:52:28;101509.91;;;23.12;51.29
35704;BME280;21820;51.112;13.762;2023-02-12T11:54:58;101502.63;;;23.03;51.44
35704;BME280;21820;51.112;13.762;2023-02-12T11:58:00;101503.28;;;22.94;52.14
35704;BME280;21820;51.112;13.762;2023-02-12T12:00:38;101507.03;;;22.90;52.43
35704;BME280;21820;51.112;13.762;2023-02-12T12:03:15;101502.09;;;22.85;52.97
35704;BME280;21820;51.112;13.762;2023-02-12T12:05:51;101500.38;;;22.72;52.80
35704;BME280;21820;51.112;13.762;2023-02-12T12:11:32;101466.53;;;22.55;53.00
35704;BME280;21820;51.112;13.762;2023-02-12T12:14:03;101496.38;;;22.66;52.73
35704;BME280;21820;51.112;13.762;2023-02-12T12:16:35;101496.16;;;22.69;52.98
35704;BME280;21820;51.112;13.762;2023-02-12T12:19:25;101496.00;;;22.85;52.77
35704;BME280;21820;51.112;13.762;2023-02-12T12:22:35;101478.59;;;22.84;52.10
35704;BME280;21820;51.112;13.762;2023-02-12T12:25:15;101471.03;;;22.92;52.15
35704;BME280;21820;51.112;13.762;2023-02-12T12:46:40;101478.41;;;23.12;51.42
35704;BME280;21820;51.112;13.762;2023-02-12T12:49:31;101477.38;;;23.02;51.76
35704;BME280;21820;51.112;13.762;2023-02-12T12:57:41;101481.59;;;22.78;52.11
35704;BME280;21820;51.112;13.762;2023-02-12T13:00:23;101483.69;;;22.73;53.14
35704;BME280;21820;51.112;13.762;2023-02-12T13:03:15;101487.38;;;22.70;53.28
35704;BME280;21820;51.112;13.762;2023-02-12T13:15:13;101470.25;;;22.65;53.66
35704;BME280;21820;51.112;13.762;2023-02-12T13:17:45;101473.19;;;22.73;53.13
35704;BME280;21820;51.112;13.762;2023-02-12T13:23:23;101476.28;;;22.92;51.75
35704;BME280;21820;51.112;13.762;2023-02-12T13:30:56;101472.53;;;23.21;51.03
35704;BME280;21820;51.112;13.762;2023-02-12T13:33:28;101469.59;;;23.25;51.24
35704;BME280;21820;51.112;13.762;2023-02-12T13:35:59;101474.00;;;23.25;51.72
35704;BME280;21820;51.112;13.762;2023-02-12T13:38:29;101468.34;;;23.18;51.62
35704;BME280;21820;51.112;13.762;2023-02-12T13:41:04;101471.25;;;23.14;52.14
35704;BME280;21820;51.112;13.762;2023-02-12T13:46:13;101469.78;;;22.97;52.50
35704;BME280;21820;51.112;13.762;2023-02-12T13:51:25;101478.38;;;22.87;52.81
35704;BME280;21820;51.112;13.762;2023-02-12T13:56:44;101473.19;;;22.73;53.54
35704;BME280;21820;51.112;13.762;2023-02-12T14:05:01;101467.50;;;22.54;54.95
35704;BME280;21820;51.112;13.762;2023-02-12T14:07:45;101476.28;;;22.53;54.72
35704;BME280;21820;51.112;13.762;2023-02-12T14:10:33;101475.38;;;22.54;54.11
35704;BME280;21820;51.112;13.762;2023-02-12T14:13:19;101470.75;;;22.57;53.52
35704;BME280;21820;51.112;13.762;2023-02-12T14:15:49;101477.81;;;22.69;53.08
35704;BME280;21820;51.112;13.762;2023-02-12T14:18:41;101479.41;;;22.84;52.40
35704;BME280;21820;51.112;13.762;2023-02-12T14:23:35;101476.63;;;23.00;52.02
35704;BME280;21820;51.112;13.762;2023-02-12T14:26:07;101480.94;;;23.13;51.55
35704;BME280;21820;51.112;13.762;2023-02-12T14:33:45;101483.97;;;23.20;50.92
35704;BME280;21820;51.112;13.762;2023-02-12T14:36:13;101488.81;;;23.13;51.87
35704;BME280;21820;51.112;13.762;2023-02-12T14:41:25;101476.63;;;23.00;51.82
35704;BME280;21820;51.112;13.762;2023-02-12T14:46:52;101478.38;;;22.87;52.38
35704;BME280;21820;51.112;13.762;2023-02-12T14:52:01;101488.94;;;22.73;53.06
35704;BME280;21820;51.112;13.762;2023-02-12T14:59:37;101489.84;;;22.59;53.68
35704;BME280;21820;51.112;13.762;2023-02-12T15:02:07;101494.63;;;22.53;54.30
35704;BME280;21820;51.112;13.762;2023-02-12T15:04:40;101495.66;;;22.50;54.00
35704;BME280;21820;51.112;13.762;2023-02-12T15:07:09;101501.38;;;22.57;53.63
35704;BME280;21820;51.112;13.762;2023-02-12T15:10:02;101497.22;;;22.67;53.49